createdAt,value
2018-09-21T00:01:08.903Z,74.80
2018-09-21T00:03:39.620Z,75.20
2018-09-21T00:06:09.698Z,76.00
2018-09-21T00:08:39.376Z,76.90
2018-09-21T00:11:08.069Z,77.50
2018-09-21T00:13:36.924Z,77.60
2018-09-21T00:16:05.545Z,78.10
2018-09-21T00:18:34.688Z,78.00
2018-09-21T00:21:03.490Z,78.80
2018-09-21T00:23:32.642Z,79.70
2018-09-21T00:26:01.928Z,80.30
2018-09-21T00:28:31.100Z,80.90
2018-09-21T00:31:00.179Z,80.60
2018-09-21T00:33:30.444Z,80.50
2018-09-21T00:36:03.021Z,80.40
2018-09-21T00:38:33.145Z,80.10
2018-09-21T00:41:02.396Z,79.60
2018-09-21T00:43:31.310Z,81.50
2018-09-21T00:46:00.129Z,85.10
2018-09-21T00:48:28.941Z,86.10
2018-09-21T00:50:59.804Z,86.20
2018-09-21T00:53:29.089Z,85.50
2018-09-21T00:55:58.241Z,86.50
2018-09-21T00:58:27.096Z,86.40
2018-09-21T01:00:56.537Z,85.80
2018-09-21T01:03:25.635Z,86.40
2018-09-21T01:05:56.359Z,86.00
2018-09-21T01:08:25.152Z,86.70
2018-09-21T01:10:54.129Z,86.30
2018-09-21T01:13:23.371Z,86.70
2018-09-21T01:15:52.834Z,87.30
2018-09-21T01:18:23.116Z,86.80
2018-09-21T01:20:53.114Z,85.00
2018-09-21T01:23:22.415Z,84.50
2018-09-21T01:25:51.635Z,85.10
2018-09-21T01:28:25.974Z,84.80
2018-09-21T01:30:54.748Z,85.00
2018-09-21T01:33:24.060Z,85.10
2018-09-21T01:35:53.487Z,85.40
2018-09-21T01:38:22.400Z,84.50
2018-09-21T01:40:52.213Z,83.60
2018-09-21T01:43:21.030Z,84.10
2018-09-21T01:45:49.912Z,84.10
2018-09-21T01:48:19.096Z,82.80
2018-09-21T01:50:48.533Z,81.00
2018-09-21T01:53:17.653Z,80.10
2018-09-21T01:55:46.485Z,80.30
2018-09-21T01:58:15.248Z,80.80
2018-09-21T02:00:45.646Z,80.30
2018-09-21T02:03:14.403Z,78.90
2018-09-21T02:05:45.488Z,79.70
2018-09-21T02:08:16.559Z,79.30
2018-09-21T02:10:46.380Z,78.50
2018-09-21T02:13:16.041Z,78.90
2018-09-21T02:15:44.916Z,79.40
2018-09-21T02:18:13.752Z,78.50
2018-09-21T02:20:42.781Z,77.70
2018-09-21T02:23:13.335Z,78.70
2018-09-21T02:25:42.639Z,78.30
2018-09-21T02:28:11.357Z,79.30
2018-09-21T02:30:40.087Z,78.10
2018-09-21T02:33:08.819Z,78.70
2018-09-21T02:35:38.533Z,79.20
2018-09-21T02:38:07.775Z,77.90
2018-09-21T02:40:37.218Z,78.70
2018-09-21T02:43:06.165Z,78.40
2018-09-21T02:45:35.172Z,76.90
2018-09-21T02:48:04.250Z,77.10
2018-09-21T02:50:34.128Z,75.80
2018-09-21T02:53:03.968Z,76.80
2018-09-21T02:55:32.696Z,76.80
2018-09-21T02:58:01.918Z,76.90
2018-09-21T03:00:30.828Z,76.80
2018-09-21T03:02:59.442Z,77.60
2018-09-21T03:05:28.404Z,75.80
2018-09-21T03:07:57.186Z,76.60
2018-09-21T03:10:25.958Z,75.60
2018-09-21T03:12:54.953Z,76.30
2018-09-21T03:15:24.100Z,75.30
2018-09-21T03:17:52.925Z,74.50
2018-09-21T03:20:25.192Z,75.20
2018-09-21T03:22:55.081Z,74.50
2018-09-21T03:25:23.890Z,75.40
2018-09-21T03:27:53.020Z,75.20
2018-09-21T03:30:22.028Z,74.10
2018-09-21T03:32:50.863Z,72.40
2018-09-21T03:35:21.824Z,73.20
2018-09-21T03:37:54.691Z,73.20
2018-09-21T03:40:25.289Z,73.70
2018-09-21T03:42:54.283Z,74.20
2018-09-21T03:45:23.517Z,73.70
2018-09-21T03:47:52.309Z,74.90
2018-09-21T03:50:21.400Z,72.70
2018-09-21T03:52:51.409Z,73.80
2018-09-21T03:55:21.288Z,73.70
2018-09-21T03:57:50.907Z,72.50
2018-09-21T04:00:19.676Z,73.20
2018-09-21T04:02:48.783Z,73.30
2018-09-21T04:05:21.584Z,72.70
2018-09-21T04:07:50.316Z,73.00
2018-09-21T04:10:20.081Z,72.40
2018-09-21T04:12:48.814Z,72.50
2018-09-21T04:15:17.641Z,73.60
2018-09-21T04:17:46.729Z,71.50
2018-09-21T04:20:15.454Z,71.50
2018-09-21T04:22:49.060Z,71.60
2018-09-21T04:25:17.880Z,71.40
2018-09-21T04:27:49.106Z,70.80
2018-09-21T04:30:18.216Z,72.00
2018-09-21T04:32:47.278Z,71.80
2018-09-21T04:35:16.205Z,70.80
2018-09-21T04:37:45.077Z,72.60
2018-09-21T04:40:15.614Z,71.80
2018-09-21T04:42:48.477Z,72.10
2018-09-21T04:45:20.918Z,71.70
2018-09-21T04:47:49.652Z,70.80
2018-09-21T04:50:18.396Z,70.50
2018-09-21T04:52:47.151Z,70.60
2018-09-21T04:55:16.707Z,70.40
2018-09-21T04:57:45.598Z,69.70
2018-09-21T05:00:14.891Z,69.00
2018-09-21T05:02:44.316Z,69.70
2018-09-21T05:05:13.149Z,70.20
2018-09-21T05:07:41.929Z,69.20
2018-09-21T05:10:11.508Z,68.80
2018-09-21T05:12:40.987Z,69.40
2018-09-21T05:15:12.719Z,69.70
2018-09-21T05:17:41.658Z,69.10
2018-09-21T05:20:10.625Z,69.20
2018-09-21T05:22:39.650Z,68.90
2018-09-21T05:25:09.022Z,69.10
2018-09-21T05:27:38.024Z,69.10
2018-09-21T05:30:07.770Z,70.70
2018-09-21T05:32:37.000Z,69.70
2018-09-21T05:35:06.396Z,68.90
2018-09-21T05:37:35.335Z,69.20
2018-09-21T05:40:04.130Z,68.80
2018-09-21T05:42:34.308Z,67.70
2018-09-21T05:45:04.586Z,69.40
2018-09-21T05:47:33.353Z,67.40
2018-09-21T05:50:02.195Z,68.40
2018-09-21T05:52:31.265Z,67.80
2018-09-21T05:55:00.065Z,68.50
2018-09-21T05:57:33.760Z,68.50
2018-09-21T06:00:03.688Z,69.10
2018-09-21T06:02:32.680Z,69.30
2018-09-21T06:05:06.520Z,69.70
2018-09-21T06:07:35.752Z,69.60
2018-09-21T06:10:05.317Z,69.80
2018-09-21T06:12:34.590Z,69.40
2018-09-21T06:15:03.505Z,69.60
2018-09-21T06:17:32.878Z,68.70
2018-09-21T06:20:11.867Z,68.30
2018-09-21T06:22:31.164Z,68.60
2018-09-21T06:25:00.226Z,69.40
2018-09-21T06:27:29.006Z,68.30
2018-09-21T06:29:57.741Z,68.10
2018-09-21T06:32:28.811Z,68.60
2018-09-21T06:34:59.472Z,68.70
2018-09-21T06:37:28.860Z,68.40
2018-09-21T06:39:58.158Z,67.60
2018-09-21T06:42:26.962Z,67.60
2018-09-21T06:44:55.743Z,68.90
2018-09-21T06:47:25.881Z,68.30
2018-09-21T06:49:56.397Z,68.60
2018-09-21T06:52:27.736Z,67.90
2018-09-21T06:54:56.907Z,67.20
2018-09-21T06:57:25.733Z,67.20
2018-09-21T06:59:54.768Z,66.30
2018-09-21T07:02:23.841Z,66.30
2018-09-21T07:04:52.967Z,66.60
2018-09-21T07:07:24.795Z,66.40
2018-09-21T07:09:55.155Z,66.70
2018-09-21T07:12:24.545Z,66.80
2018-09-21T07:14:53.320Z,66.00
2018-09-21T07:17:22.096Z,65.60
2018-09-21T07:19:50.873Z,66.00
2018-09-21T07:22:19.919Z,66.40
2018-09-21T07:24:49.604Z,64.30
2018-09-21T07:27:18.368Z,64.30
2018-09-21T07:29:47.158Z,64.60
2018-09-21T07:32:16.193Z,64.50
2018-09-21T07:34:49.865Z,64.70
2018-09-21T07:37:19.725Z,64.60
2018-09-21T07:39:48.536Z,64.30
2018-09-21T07:42:17.693Z,64.00
2018-09-21T07:44:46.492Z,64.40
2018-09-21T07:47:15.226Z,63.80
2018-09-21T07:49:44.008Z,63.80
2018-09-21T07:52:12.797Z,64.50
2018-09-21T07:54:41.524Z,64.60
2018-09-21T07:57:10.628Z,64.80
2018-09-21T07:59:39.887Z,63.30
2018-09-21T08:02:09.455Z,63.40
2018-09-21T08:04:38.282Z,64.10
2018-09-21T08:07:07.172Z,63.60
2018-09-21T08:09:37.686Z,62.50
2018-09-21T08:12:07.000Z,62.20
2018-09-21T08:14:35.717Z,62.30
2018-09-21T08:17:04.971Z,63.30
2018-09-21T08:19:36.098Z,61.90
2018-09-21T08:22:06.222Z,62.60
2018-09-21T08:24:35.207Z,63.00
2018-09-21T08:27:04.089Z,62.30
2018-09-21T08:29:33.253Z,62.50
2018-09-21T08:32:02.049Z,62.70
2018-09-21T08:34:41.658Z,62.30
2018-09-21T08:37:10.734Z,62.70
2018-09-21T08:39:39.561Z,62.80
2018-09-21T08:42:08.485Z,61.60
2018-09-21T08:44:37.679Z,62.10
2018-09-21T08:47:06.756Z,61.90
2018-09-21T08:49:35.571Z,61.70
2018-09-21T08:52:04.457Z,61.90
2018-09-21T08:54:33.682Z,61.80
2018-09-21T08:57:02.684Z,62.40
2018-09-21T08:59:31.728Z,62.10
2018-09-21T09:02:01.117Z,60.60
2018-09-21T09:04:29.941Z,60.30
2018-09-21T09:07:01.289Z,60.30
2018-09-21T09:09:30.104Z,61.80
2018-09-21T09:11:58.899Z,61.10
2018-09-21T09:14:28.142Z,60.80
2018-09-21T09:16:57.389Z,60.70
2018-09-21T09:19:26.241Z,60.40
2018-09-21T09:21:54.994Z,59.80
2018-09-21T09:24:25.197Z,60.60
2018-09-21T09:26:55.609Z,60.20
2018-09-21T09:29:24.666Z,60.50
2018-09-21T09:31:53.720Z,60.30
2018-09-21T09:34:22.993Z,60.60
2018-09-21T09:36:52.906Z,58.90
2018-09-21T09:39:23.701Z,59.90
2018-09-21T09:41:55.063Z,59.70
2018-09-21T09:44:27.647Z,58.90
2018-09-21T09:46:56.841Z,58.20
2018-09-21T09:49:25.835Z,57.80
2018-09-21T09:51:55.107Z,58.40
2018-09-21T09:54:23.873Z,57.40
2018-09-21T09:56:52.876Z,58.00
2018-09-21T09:59:23.574Z,56.80
2018-09-21T10:01:52.317Z,56.10
2018-09-21T10:04:21.834Z,56.40
2018-09-21T10:06:50.852Z,55.30
2018-09-21T10:09:20.044Z,55.70
2018-09-21T10:11:48.972Z,54.80
2018-09-21T10:14:19.942Z,55.50
2018-09-21T10:16:49.599Z,55.40
2018-09-21T10:19:18.991Z,54.80
2018-09-21T10:21:48.068Z,55.40
2018-09-21T10:24:17.588Z,55.10
2018-09-21T10:26:46.763Z,55.20
2018-09-21T10:29:18.626Z,55.10
2018-09-21T10:31:49.984Z,54.70
2018-09-21T10:34:18.965Z,54.00
2018-09-21T10:36:48.187Z,53.60
2018-09-21T10:39:17.185Z,53.20
2018-09-21T10:41:46.373Z,54.00
2018-09-21T10:44:15.507Z,53.50
2018-09-21T10:46:45.912Z,54.00
2018-09-21T10:49:15.799Z,52.80
2018-09-21T10:51:45.060Z,52.40
2018-09-21T10:54:14.874Z,52.70
2018-09-21T10:56:43.828Z,52.00
2018-09-21T10:59:14.049Z,51.80
2018-09-21T11:01:42.825Z,52.30
2018-09-21T11:04:11.639Z,51.10
2018-09-21T11:06:40.898Z,50.50
2018-09-21T11:09:11.069Z,51.40
2018-09-21T11:11:42.000Z,49.90
2018-09-21T11:14:13.439Z,50.90
2018-09-21T11:16:42.493Z,51.90
2018-09-21T11:19:12.187Z,49.30
2018-09-21T11:21:42.759Z,48.70
2018-09-21T11:24:11.570Z,49.10
2018-09-21T11:26:40.686Z,49.60
2018-09-21T11:29:09.427Z,50.00
2018-09-21T11:31:41.344Z,49.40
2018-09-21T11:34:10.414Z,50.00
2018-09-21T11:36:41.029Z,48.90
2018-09-21T11:39:15.134Z,49.40
2018-09-21T11:41:44.979Z,48.60
2018-09-21T11:44:14.288Z,50.10
2018-09-21T11:46:43.333Z,49.10
2018-09-21T11:49:12.564Z,49.40
2018-09-21T11:51:41.421Z,48.00
2018-09-21T11:54:13.486Z,48.10
2018-09-21T11:56:44.854Z,47.50
2018-09-21T11:59:14.004Z,46.40
2018-09-21T12:01:43.167Z,47.20
2018-09-21T12:04:12.133Z,45.60
2018-09-21T12:06:41.289Z,44.70
2018-09-21T12:09:10.031Z,44.10
2018-09-21T12:11:40.274Z,44.70
2018-09-21T12:14:09.472Z,43.40
2018-09-21T12:16:38.717Z,43.30
2018-09-21T12:19:07.720Z,44.50
2018-09-21T12:21:36.748Z,42.60
2018-09-21T12:24:07.723Z,43.10
2018-09-21T12:26:37.847Z,42.80
2018-09-21T12:29:07.104Z,41.70
2018-09-21T12:31:36.378Z,42.20
2018-09-21T12:34:05.835Z,43.00
2018-09-21T12:36:34.626Z,42.70
2018-09-21T12:39:05.498Z,43.80
2018-09-21T12:41:35.370Z,43.20
2018-09-21T12:44:04.714Z,43.90
2018-09-21T12:46:33.596Z,42.30
2018-09-21T12:49:04.164Z,43.30
2018-09-21T12:51:33.861Z,43.80
2018-09-21T12:54:03.081Z,46.90
2018-09-21T12:56:32.595Z,48.20
2018-09-21T12:59:02.699Z,51.90
2018-09-21T13:01:31.793Z,54.10
2018-09-21T13:04:00.523Z,55.30
2018-09-21T13:06:29.912Z,55.70
2018-09-21T13:08:58.687Z,56.60
2018-09-21T13:11:27.637Z,58.20
2018-09-21T13:13:59.237Z,57.90
2018-09-21T13:16:28.057Z,57.10
2018-09-21T13:18:57.392Z,56.40
2018-09-21T13:21:26.239Z,55.40
2018-09-21T13:23:55.011Z,55.10
2018-09-21T13:26:25.940Z,56.30
2018-09-21T13:29:00.030Z,56.80
2018-09-21T13:31:34.604Z,57.00
2018-09-21T13:34:06.491Z,57.50
2018-09-21T13:36:37.488Z,59.10
2018-09-21T13:39:09.411Z,60.30
2018-09-21T13:41:38.368Z,58.50
2018-09-21T13:44:07.219Z,57.70
2018-09-21T13:46:36.377Z,56.90
2018-09-21T13:49:07.177Z,56.60
2018-09-21T13:51:36.246Z,56.90
2018-09-21T13:54:09.522Z,56.60
2018-09-21T13:56:38.385Z,55.40
2018-09-21T13:59:07.535Z,55.00
2018-09-21T14:01:36.808Z,54.20
2018-09-21T14:04:05.659Z,53.70
2018-09-21T14:06:34.468Z,55.30
2018-09-21T14:09:05.876Z,54.60
2018-09-21T14:11:37.678Z,54.70
2018-09-21T14:14:07.210Z,53.10
2018-09-21T14:16:36.134Z,53.40
2018-09-21T14:19:05.116Z,53.70
2018-09-21T14:21:33.896Z,53.00
2018-09-21T14:24:02.838Z,53.70
2018-09-21T14:26:33.107Z,53.60
2018-09-21T14:29:02.566Z,53.60
2018-09-21T14:31:31.393Z,51.70
2018-09-21T14:34:00.366Z,51.60
2018-09-21T14:36:29.507Z,51.10
2018-09-21T14:39:00.393Z,52.20
2018-09-21T14:41:31.063Z,51.20
2018-09-21T14:43:59.828Z,50.60
2018-09-21T14:46:28.610Z,51.30
2018-09-21T14:48:57.752Z,51.50
2018-09-21T14:51:26.501Z,51.50
2018-09-21T14:53:58.105Z,51.70
2018-09-21T14:56:28.437Z,52.00
2018-09-21T14:58:57.664Z,50.70
2018-09-21T15:01:26.429Z,51.00
2018-09-21T15:03:55.905Z,50.30
2018-09-21T15:06:24.676Z,51.00
2018-09-21T15:08:55.128Z,51.20
2018-09-21T15:11:24.585Z,50.90
2018-09-21T15:13:53.775Z,50.70
2018-09-21T15:16:22.722Z,50.70
2018-09-21T15:18:51.529Z,51.50
2018-09-21T15:21:23.671Z,52.20
2018-09-21T15:23:53.413Z,52.70
2018-09-21T15:26:26.285Z,51.10
2018-09-21T15:28:55.034Z,52.00
2018-09-21T15:31:25.785Z,51.20
2018-09-21T15:33:54.974Z,51.40
2018-09-21T15:36:29.569Z,51.40
2018-09-21T15:38:58.689Z,50.90
2018-09-21T15:41:27.857Z,50.70
2018-09-21T15:43:56.908Z,50.80
2018-09-21T15:46:27.765Z,51.50
2018-09-21T15:49:01.201Z,52.00
2018-09-21T15:51:31.624Z,51.50
2018-09-21T15:54:00.762Z,50.70
2018-09-21T15:56:30.496Z,51.40
2018-09-21T15:58:59.806Z,50.80
2018-09-21T16:01:28.734Z,50.90
2018-09-21T16:03:57.624Z,51.20
2018-09-21T16:06:27.816Z,51.50
2018-09-21T16:09:01.897Z,49.90
2018-09-21T16:11:30.777Z,49.80
2018-09-21T16:14:00.113Z,49.60
2018-09-21T16:16:28.869Z,48.70
2018-09-21T16:18:57.801Z,49.70
2018-09-21T16:21:26.605Z,48.90
2018-09-21T16:24:01.561Z,49.20
2018-09-21T16:26:33.041Z,48.60
2018-09-21T16:29:06.128Z,48.30
2018-09-21T16:31:34.895Z,48.20
2018-09-21T16:34:03.807Z,48.50
2018-09-21T16:36:32.895Z,48.20
2018-09-21T16:39:01.800Z,48.30
2018-09-21T16:41:31.088Z,47.40
2018-09-21T16:44:07.454Z,48.60
2018-09-21T16:46:37.958Z,48.00
2018-09-21T16:49:10.196Z,48.40
2018-09-21T16:51:39.325Z,48.40
2018-09-21T16:54:08.664Z,48.80
2018-09-21T16:56:37.714Z,48.80
2018-09-21T16:59:06.560Z,48.50
2018-09-21T17:01:36.356Z,48.20
2018-09-21T17:04:05.212Z,49.00
2018-09-21T17:06:34.417Z,48.80
2018-09-21T17:09:04.232Z,49.60
2018-09-21T17:11:33.784Z,49.20
2018-09-21T17:14:03.213Z,49.20
2018-09-21T17:16:32.352Z,50.00
2018-09-21T17:19:02.793Z,50.20
2018-09-21T17:21:31.952Z,49.60
2018-09-21T17:24:01.268Z,50.40
2018-09-21T17:26:31.672Z,50.70
2018-09-21T17:29:00.944Z,50.40
2018-09-21T17:31:30.051Z,49.90
2018-09-21T17:34:01.052Z,50.00
2018-09-21T17:36:31.474Z,49.70
2018-09-21T17:39:00.699Z,50.40
2018-09-21T17:41:29.969Z,50.80
2018-09-21T17:43:59.000Z,50.40
2018-09-21T17:46:27.797Z,50.30
2018-09-21T17:48:58.526Z,50.90
2018-09-21T17:51:30.247Z,51.80
2018-09-21T17:53:59.541Z,51.20
2018-09-21T17:56:28.839Z,52.30
2018-09-21T17:58:58.565Z,51.60
2018-09-21T18:01:27.662Z,51.90
2018-09-21T18:03:57.456Z,51.40
2018-09-21T18:06:26.817Z,51.50
2018-09-21T18:08:55.674Z,51.80
2018-09-21T18:11:25.232Z,51.70
2018-09-21T18:13:54.578Z,51.60
2018-09-21T18:16:23.594Z,51.90
2018-09-21T18:18:52.903Z,52.10
2018-09-21T18:21:23.770Z,52.00
2018-09-21T18:23:53.588Z,52.20
2018-09-21T18:26:22.463Z,51.80
2018-09-21T18:28:51.270Z,51.80
2018-09-21T18:31:20.516Z,51.80
2018-09-21T18:33:49.704Z,52.30
2018-09-21T18:36:20.425Z,51.90
2018-09-21T18:38:50.326Z,51.90
2018-09-21T18:41:19.817Z,53.20
2018-09-21T18:43:49.029Z,52.80
2018-09-21T18:46:18.390Z,52.70
2018-09-21T18:48:48.030Z,53.10
2018-09-21T18:51:18.782Z,52.80
2018-09-21T18:53:48.515Z,53.20
2018-09-21T18:56:17.366Z,53.40
2018-09-21T18:58:46.755Z,53.40
2018-09-21T19:01:16.115Z,53.50
2018-09-21T19:03:46.632Z,53.90
2018-09-21T19:06:16.166Z,54.00
2018-09-21T19:08:46.017Z,54.30
2018-09-21T19:11:15.312Z,54.10
2018-09-21T19:13:44.332Z,54.60
2018-09-21T19:16:13.510Z,54.70
2018-09-21T19:18:42.820Z,54.80
2018-09-21T19:21:13.817Z,55.30
2018-09-21T19:23:43.222Z,55.30
2018-09-21T19:26:12.677Z,56.00
2018-09-21T19:28:42.229Z,55.90
2018-09-21T19:31:11.379Z,56.00
2018-09-21T19:33:40.243Z,56.40
2018-09-21T19:36:09.351Z,56.50
2018-09-21T19:38:40.317Z,57.00
2018-09-21T19:41:13.960Z,56.90
2018-09-21T19:43:45.178Z,57.20
2018-09-21T19:46:15.652Z,57.40
2018-09-21T19:48:45.081Z,57.70
2018-09-21T19:51:14.154Z,57.90
2018-09-21T19:53:42.932Z,58.00
2018-09-21T19:56:11.688Z,58.20
2018-09-21T19:58:42.024Z,58.40
2018-09-21T20:01:11.210Z,58.40
2018-09-21T20:03:40.278Z,58.70
2018-09-21T20:06:09.385Z,58.50
2018-09-21T20:08:38.566Z,59.10
2018-09-21T20:11:07.632Z,59.20
2018-09-21T20:13:40.011Z,59.40
2018-09-21T20:16:09.545Z,59.50
2018-09-21T20:18:38.668Z,59.60
2018-09-21T20:21:07.809Z,59.90
2018-09-21T20:23:37.699Z,60.00
2018-09-21T20:26:06.746Z,60.30
2018-09-21T20:28:38.217Z,60.10
2018-09-21T20:31:12.632Z,60.30
2018-09-21T20:33:41.672Z,60.40
2018-09-21T20:36:10.838Z,60.80
2018-09-21T20:38:40.321Z,60.90
2018-09-21T20:41:09.253Z,61.00
2018-09-21T20:43:38.586Z,61.30
2018-09-21T20:46:08.309Z,61.30
2018-09-21T20:48:39.268Z,61.10
2018-09-21T20:51:08.790Z,61.20
2018-09-21T20:53:38.536Z,61.50
2018-09-21T20:56:07.967Z,61.40
2018-09-21T20:58:37.288Z,61.70
2018-09-21T21:01:08.637Z,61.80
2018-09-21T21:03:42.417Z,61.90
2018-09-21T21:06:13.154Z,61.80
2018-09-21T21:08:42.346Z,62.10
2018-09-21T21:11:11.860Z,62.20
2018-09-21T21:13:40.992Z,62.20
2018-09-21T21:16:09.829Z,62.40
2018-09-21T21:18:38.820Z,62.50
2018-09-21T21:21:08.731Z,62.10
2018-09-21T21:23:38.664Z,62.40
2018-09-21T21:26:08.400Z,62.50
2018-09-21T21:28:37.323Z,62.50
2018-09-21T21:31:06.344Z,62.10
2018-09-21T21:33:35.327Z,62.00
2018-09-21T21:36:05.764Z,62.40
2018-09-21T21:38:35.554Z,62.20
2018-09-21T21:41:04.707Z,62.10
2018-09-21T21:43:33.987Z,62.10
2018-09-21T21:46:02.897Z,62.10
2018-09-21T21:48:33.249Z,62.00
2018-09-21T21:51:03.571Z,62.00
2018-09-21T21:53:32.763Z,62.00
2018-09-21T21:56:01.922Z,62.00
2018-09-21T21:58:31.654Z,62.20
2018-09-21T22:01:06.253Z,62.00
2018-09-21T22:03:35.500Z,62.10
2018-09-21T22:06:05.689Z,62.20
2018-09-21T22:08:35.610Z,62.10
2018-09-21T22:11:10.391Z,62.20
2018-09-21T22:13:45.181Z,62.40
2018-09-21T22:16:15.396Z,62.30
2018-09-21T22:18:44.564Z,62.20
2018-09-21T22:21:14.772Z,62.20
2018-09-21T22:23:44.890Z,62.20
2018-09-21T22:26:13.912Z,62.20
2018-09-21T22:28:44.841Z,62.20
2018-09-21T22:31:16.364Z,62.60
2018-09-21T22:33:46.283Z,62.70
2018-09-21T22:36:15.454Z,62.70
2018-09-21T22:38:44.621Z,62.70
2018-09-21T22:41:14.143Z,62.60
2018-09-21T22:43:43.440Z,62.50
2018-09-21T22:46:12.729Z,62.60
2018-09-21T22:48:45.720Z,62.50
2018-09-21T22:51:17.772Z,62.80
2018-09-21T22:53:49.264Z,62.90
2018-09-21T22:56:18.466Z,62.90
2018-09-21T22:58:47.915Z,63.20
2018-09-21T23:01:17.160Z,63.30
2018-09-21T23:03:45.958Z,64.00
2018-09-21T23:06:14.804Z,63.40
2018-09-21T23:08:47.039Z,63.30
2018-09-21T23:11:19.323Z,63.30
2018-09-21T23:13:48.561Z,63.20
2018-09-21T23:16:17.340Z,63.30
2018-09-21T23:18:46.259Z,63.50
2018-09-21T23:21:15.049Z,63.60
2018-09-21T23:23:43.952Z,63.80
2018-09-21T23:26:13.802Z,63.80
2018-09-21T23:28:42.596Z,63.70
2018-09-21T23:31:11.665Z,63.90
2018-09-21T23:33:40.515Z,63.80
2018-09-21T23:36:10.011Z,63.70
2018-09-21T23:38:39.340Z,63.90
2018-09-21T23:41:10.695Z,63.90
2018-09-21T23:43:39.988Z,64.10
2018-09-21T23:46:08.919Z,64.30
2018-09-21T23:48:38.222Z,64.40
2018-09-21T23:51:09.629Z,64.40
2018-09-21T23:53:39.576Z,64.40
2018-09-21T23:56:09.805Z,64.60
2018-09-21T23:58:42.631Z,64.80
